createdAt,value
2019-02-09T00:00:28.944Z,14.70
2019-02-09T00:03:02.127Z,16.80
2019-02-09T00:05:33.271Z,17.67
2019-02-09T00:08:07.251Z,16.30
2019-02-09T00:10:40.812Z,13.90
2019-02-09T00:13:14.295Z,15.20
2019-02-09T00:15:44.645Z,18.97
2019-02-09T00:18:19.674Z,15.60
2019-02-09T00:20:49.508Z,14.67
2019-02-09T00:23:23.255Z,17.33
2019-02-09T00:25:53.521Z,16.87
2019-02-09T00:28:25.767Z,18.50
2019-02-09T00:30:59.127Z,17.03
2019-02-09T00:33:29.423Z,18.67
2019-02-09T00:36:02.497Z,14.90
2019-02-09T00:38:33.462Z,17.87
2019-02-09T00:41:03.165Z,15.20
2019-02-09T00:43:32.896Z,17.73
2019-02-09T00:46:02.718Z,18.17
2019-02-09T00:48:32.575Z,16.30
2019-02-09T00:51:02.488Z,20.30
2019-02-09T00:53:32.265Z,17.17
2019-02-09T00:56:02.621Z,15.87
2019-02-09T00:58:32.802Z,20.27
2019-02-09T01:01:02.960Z,15.37
2019-02-09T01:03:33.121Z,16.43
2019-02-09T01:06:06.319Z,19.10
2019-02-09T01:08:36.281Z,15.37
2019-02-09T01:11:07.457Z,17.03
2019-02-09T01:13:38.195Z,15.70
2019-02-09T01:16:10.029Z,14.07
2019-02-09T01:18:42.953Z,16.50
2019-02-09T01:21:14.846Z,13.70
2019-02-09T01:23:44.803Z,14.10
2019-02-09T01:26:18.320Z,14.97
2019-02-09T01:28:48.418Z,13.60
2019-02-09T01:31:18.578Z,14.03
2019-02-09T01:33:48.381Z,12.40
2019-02-09T01:36:18.255Z,14.83
2019-02-09T01:38:49.186Z,16.00
2019-02-09T01:41:19.130Z,15.47
2019-02-09T01:43:49.039Z,13.53
2019-02-09T01:46:22.735Z,15.70
2019-02-09T01:48:52.682Z,13.20
2019-02-09T01:51:23.107Z,14.33
2019-02-09T01:53:53.126Z,16.80
2019-02-09T01:56:23.561Z,16.10
2019-02-09T01:58:57.131Z,13.77
2019-02-09T02:01:27.401Z,13.57
2019-02-09T02:03:57.588Z,12.43
2019-02-09T02:06:27.499Z,15.47
2019-02-09T02:08:57.701Z,14.90
2019-02-09T02:11:38.044Z,13.40
2019-02-09T02:14:08.807Z,14.83
2019-02-09T02:16:39.509Z,11.67
2019-02-09T02:19:09.550Z,12.60
2019-02-09T02:21:40.150Z,11.83
2019-02-09T02:24:10.242Z,14.47
2019-02-09T02:26:46.794Z,12.60
2019-02-09T02:29:16.711Z,13.13
2019-02-09T02:31:46.658Z,15.00
2019-02-09T02:34:27.132Z,10.83
2019-02-09T02:37:00.126Z,10.73
2019-02-09T02:39:29.957Z,10.23
2019-02-09T02:42:06.191Z,9.93
2019-02-09T02:44:38.651Z,12.07
2019-02-09T02:50:39.503Z,10.50
2019-02-09T02:53:09.448Z,10.17
2019-02-09T02:55:39.428Z,8.13
2019-02-09T02:58:10.883Z,10.60
2019-02-09T03:00:40.846Z,10.87
2019-02-09T03:03:11.512Z,9.97
2019-02-09T03:05:41.785Z,11.20
2019-02-09T03:08:16.801Z,12.27
2019-02-09T03:10:47.185Z,9.90
2019-02-09T03:13:17.550Z,10.57
2019-02-09T03:15:47.777Z,11.90
2019-02-09T03:18:19.162Z,9.60
2019-02-09T03:20:52.631Z,6.20
2019-02-09T03:23:23.681Z,9.50
2019-02-09T03:25:54.519Z,5.30
2019-02-09T03:28:30.331Z,4.37
2019-02-09T03:31:00.536Z,7.00
2019-02-09T03:33:32.838Z,4.20
2019-02-09T03:36:05.238Z,4.60
2019-02-09T03:38:39.110Z,4.10
2019-02-09T03:41:12.684Z,4.03
2019-02-09T03:43:42.532Z,5.77
2019-02-09T03:46:12.576Z,4.57
2019-02-09T03:48:42.851Z,7.23
2019-02-09T03:51:12.768Z,4.60
2019-02-09T03:53:42.964Z,3.80
2019-02-09T03:56:19.868Z,5.33
2019-02-09T03:58:50.003Z,5.73
2019-02-09T04:01:20.065Z,5.50
2019-02-09T04:03:50.362Z,4.33
2019-02-09T04:06:20.539Z,5.20
2019-02-09T04:08:50.209Z,3.90
2019-02-09T04:11:28.335Z,5.00
2019-02-09T04:13:58.166Z,4.37
2019-02-09T04:16:33.388Z,5.20
2019-02-09T04:19:07.151Z,4.50
2019-02-09T04:21:39.697Z,4.57
2019-02-09T04:24:10.228Z,5.80
2019-02-09T04:26:42.274Z,6.10
2019-02-09T04:29:17.792Z,4.80
2019-02-09T04:31:58.071Z,6.10
2019-02-09T04:34:28.477Z,5.63
2019-02-09T04:36:58.407Z,6.77
2019-02-09T04:39:32.896Z,5.30
2019-02-09T04:42:03.642Z,5.30
2019-02-09T04:44:34.119Z,4.47
2019-02-09T04:47:04.815Z,5.63
2019-02-09T04:49:35.357Z,5.60
2019-02-09T04:52:05.359Z,5.10
2019-02-09T04:54:35.375Z,6.50
2019-02-09T04:57:08.318Z,4.47
2019-02-09T04:59:49.210Z,4.50
2019-02-09T05:02:29.913Z,4.17
2019-02-09T05:04:59.808Z,5.47
2019-02-09T05:07:34.044Z,4.27
2019-02-09T05:10:04.829Z,4.27
2019-02-09T05:12:34.818Z,4.37
2019-02-09T05:15:05.462Z,7.83
2019-02-09T05:17:38.610Z,5.07
2019-02-09T05:20:12.944Z,4.63
2019-02-09T05:22:57.212Z,4.23
2019-02-09T05:25:27.292Z,4.83
2019-02-09T05:28:00.707Z,5.77
2019-02-09T05:30:30.975Z,4.83
2019-02-09T05:33:01.237Z,4.00
2019-02-09T05:35:39.011Z,4.80
2019-02-09T05:38:10.913Z,5.23
2019-02-09T05:40:41.748Z,5.40
2019-02-09T05:46:13.865Z,5.22
2019-02-09T05:48:51.143Z,5.07
2019-02-09T05:51:22.710Z,6.07
2019-02-09T05:53:57.152Z,4.53
2019-02-09T05:56:41.567Z,4.93
2019-02-09T05:59:13.333Z,6.40
2019-02-09T06:01:44.101Z,5.80
2019-02-09T06:04:17.051Z,5.50
2019-02-09T06:06:47.528Z,5.80
2019-02-09T06:09:18.146Z,5.30
2019-02-09T06:12:03.987Z,5.10
2019-02-09T06:14:36.169Z,7.53
2019-02-09T06:17:13.261Z,4.53
2019-02-09T06:19:47.182Z,5.40
2019-02-09T06:22:22.379Z,5.70
2019-02-09T06:25:01.383Z,5.43
2019-02-09T06:27:35.294Z,5.50
2019-02-09T06:30:06.642Z,5.00
2019-02-09T06:32:36.457Z,5.13
2019-02-09T06:35:07.497Z,6.80
2019-02-09T06:37:42.504Z,4.90
2019-02-09T06:40:14.414Z,7.30
2019-02-09T06:42:43.955Z,5.90
2019-02-09T06:45:16.781Z,6.40
2019-02-09T06:47:46.867Z,4.20
2019-02-09T06:50:21.204Z,7.43
2019-02-09T06:53:06.739Z,4.40
2019-02-09T07:02:44.734Z,8.23
2019-02-09T07:05:43.719Z,6.03
2019-02-09T07:26:50.440Z,4.80
2019-02-09T07:29:20.095Z,6.33
2019-02-09T07:31:56.365Z,5.10
2019-02-09T07:34:21.670Z,4.30
2019-02-09T07:36:51.508Z,4.47
2019-02-09T07:39:21.757Z,5.60
2019-02-09T07:41:51.296Z,5.20
2019-02-09T07:44:20.779Z,4.73
2019-02-09T07:46:50.682Z,4.83
2019-02-09T07:49:20.151Z,5.30
2019-02-09T07:51:49.347Z,4.30
2019-02-09T07:54:18.743Z,5.00
2019-02-09T07:56:48.125Z,6.00
2019-02-09T07:59:17.886Z,5.20
2019-02-09T08:01:47.703Z,4.50
2019-02-09T08:04:17.302Z,4.30
2019-02-09T08:06:47.240Z,4.20
2019-02-09T08:09:16.848Z,4.07
2019-02-09T08:11:47.315Z,4.90
2019-02-09T08:14:16.951Z,4.37
2019-02-09T08:16:47.207Z,6.53
2019-02-09T08:19:16.807Z,6.53
2019-02-09T08:21:46.824Z,5.40
2019-02-09T08:24:17.218Z,4.83
2019-02-09T08:26:47.970Z,5.30
2019-02-09T08:29:18.192Z,5.23
2019-02-09T08:31:51.658Z,6.43
2019-02-09T08:34:21.628Z,8.40
2019-02-09T08:36:52.170Z,5.07
2019-02-09T08:39:22.256Z,6.13
2019-02-09T08:41:52.301Z,5.50
2019-02-09T08:48:03.793Z,10.07
2019-02-09T08:50:36.097Z,6.47
2019-02-09T08:53:06.573Z,9.47
2019-02-09T08:55:45.654Z,6.30
2019-02-09T08:58:18.883Z,6.93
2019-02-09T09:00:48.700Z,4.90
2019-02-09T09:07:29.600Z,8.53
2019-02-09T09:18:51.317Z,6.10
2019-02-09T09:21:32.789Z,7.90
2019-02-09T09:32:19.815Z,6.47
2019-02-09T10:54:18.422Z,10.47
2019-02-09T10:57:12.722Z,10.90
2019-02-09T11:00:38.665Z,10.63
2019-02-09T11:22:33.326Z,5.90
2019-02-09T11:29:09.372Z,11.67
2019-02-09T11:32:17.507Z,5.80
2019-02-09T11:35:44.810Z,5.90
2019-02-09T11:38:14.823Z,8.47
2019-02-09T11:40:44.676Z,4.80
2019-02-09T11:43:14.273Z,5.10
2019-02-09T11:45:44.244Z,7.00
2019-02-09T11:48:14.558Z,6.30
2019-02-09T11:50:44.334Z,6.37
2019-02-09T11:53:14.180Z,8.83
2019-02-09T11:55:44.094Z,8.67
2019-02-09T11:58:14.212Z,10.60
2019-02-09T12:00:46.846Z,5.50
2019-02-09T12:03:16.569Z,5.60
2019-02-09T12:05:46.792Z,7.50
2019-02-09T12:08:26.794Z,6.43
2019-02-09T12:10:56.965Z,5.60
2019-02-09T12:13:26.940Z,5.50
2019-02-09T12:15:56.302Z,5.00
2019-02-09T12:18:26.062Z,7.17
2019-02-09T12:20:56.756Z,5.50
2019-02-09T12:23:26.421Z,5.80
2019-02-09T12:25:55.948Z,7.63
2019-02-09T12:28:25.641Z,12.97
2019-02-09T12:30:55.321Z,5.37
2019-02-09T12:33:24.919Z,7.10
2019-02-09T12:35:54.753Z,12.70
2019-02-09T12:38:24.538Z,8.40
2019-02-09T12:40:54.615Z,6.83
2019-02-09T12:43:24.346Z,7.40
2019-02-09T12:45:54.374Z,10.10
2019-02-09T12:48:25.070Z,6.87
2019-02-09T12:50:55.275Z,6.53
2019-02-09T12:53:25.325Z,10.67
2019-02-09T12:55:55.080Z,10.13
2019-02-09T12:58:24.977Z,9.60
2019-02-09T13:00:54.529Z,5.80
2019-02-09T13:03:31.231Z,6.67
2019-02-09T13:05:59.086Z,12.27
2019-02-09T13:08:28.734Z,7.03
2019-02-09T13:10:58.317Z,7.20
2019-02-09T13:13:27.737Z,7.90
2019-02-09T13:15:57.621Z,10.63
2019-02-09T13:18:27.151Z,10.57
2019-02-09T13:20:57.464Z,11.80
2019-02-09T13:23:28.044Z,9.07
2019-02-09T13:25:57.392Z,7.10
2019-02-09T13:28:27.685Z,10.27
2019-02-09T13:30:57.492Z,8.63
2019-02-09T13:33:27.665Z,9.00
2019-02-09T13:35:57.398Z,6.40
2019-02-09T13:38:28.039Z,5.60
2019-02-09T13:40:59.817Z,6.07
2019-02-09T13:43:30.004Z,6.10
2019-02-09T13:46:03.066Z,7.33
2019-02-09T13:48:32.765Z,9.50
2019-02-09T13:51:02.592Z,5.90
2019-02-09T13:53:32.306Z,7.97
2019-02-09T13:56:02.278Z,7.30
2019-02-09T13:58:35.466Z,7.60
2019-02-09T14:01:05.224Z,9.10
2019-02-09T14:03:34.813Z,10.40
2019-02-09T14:06:08.357Z,6.93
2019-02-09T14:08:37.164Z,7.93
2019-02-09T14:11:10.518Z,5.47
2019-02-09T14:13:42.640Z,6.90
2019-02-09T14:16:14.849Z,8.80
2019-02-09T14:18:48.546Z,4.97
2019-02-09T14:21:18.441Z,5.40
2019-02-09T14:23:49.044Z,9.10
2019-02-09T14:26:18.745Z,7.10
2019-02-09T14:28:49.107Z,8.73
2019-02-09T14:31:18.971Z,5.07
2019-02-09T14:33:54.551Z,13.30
2019-02-09T14:36:20.378Z,6.63
2019-02-09T14:38:50.682Z,4.90
2019-02-09T14:41:20.497Z,7.53
2019-02-09T14:43:50.412Z,12.67
2019-02-09T14:46:23.576Z,6.70
2019-02-09T14:48:54.094Z,7.37
2019-02-09T14:51:23.946Z,8.03
2019-02-09T14:53:53.835Z,8.27
2019-02-09T14:56:25.902Z,9.40
2019-02-09T14:58:55.906Z,7.50
2019-02-09T15:01:25.624Z,6.77
2019-02-09T15:04:02.602Z,14.87
2019-02-09T15:06:27.330Z,7.17
2019-02-09T15:08:57.853Z,7.80
2019-02-09T15:11:27.454Z,8.40
2019-02-09T15:13:57.387Z,18.57
2019-02-09T15:16:46.896Z,12.90
2019-02-09T15:19:16.891Z,7.10
2019-02-09T15:21:46.916Z,7.67
2019-02-09T15:24:18.458Z,11.10
2019-02-09T15:26:48.915Z,8.40
2019-02-09T15:29:22.520Z,10.13
2019-02-09T15:31:55.235Z,9.00
2019-02-09T15:34:26.391Z,13.40
2019-02-09T15:36:56.964Z,9.43
2019-02-09T15:39:26.810Z,8.07
2019-02-09T15:41:56.645Z,7.60
2019-02-09T15:44:25.916Z,7.97
2019-02-09T15:46:55.783Z,8.33
2019-02-09T15:49:25.647Z,10.00
2019-02-09T15:51:55.887Z,8.20
2019-02-09T15:54:26.181Z,10.00
2019-02-09T15:56:55.874Z,6.57
2019-02-09T15:59:25.255Z,6.87
2019-02-09T16:01:55.426Z,9.77
2019-02-09T16:04:25.552Z,13.67
2019-02-09T16:06:55.427Z,10.87
2019-02-09T16:09:25.281Z,9.43
2019-02-09T16:11:55.775Z,10.65
2019-02-09T16:14:25.831Z,11.90
2019-02-09T16:16:56.223Z,9.23
2019-02-09T16:19:25.886Z,10.00
2019-02-09T16:21:55.956Z,16.17
2019-02-09T16:24:26.303Z,12.73
2019-02-09T16:26:56.021Z,9.53
2019-02-09T16:29:26.221Z,13.87
2019-02-09T16:31:55.600Z,13.57
2019-02-09T16:34:25.826Z,17.07
2019-02-09T16:36:55.246Z,11.00
2019-02-09T16:39:25.159Z,10.80
2019-02-09T16:41:56.029Z,13.07
2019-02-09T16:44:37.705Z,10.97
2019-02-09T16:48:17.629Z,10.33
2019-02-09T16:51:37.997Z,12.07
2019-02-09T16:58:31.390Z,9.23
2019-02-09T17:16:00.506Z,9.60
2019-02-09T17:18:55.554Z,10.10
2019-02-09T17:21:44.504Z,10.37
2019-02-09T17:35:23.823Z,12.63
2019-02-09T17:38:08.516Z,11.70
2019-02-09T17:40:52.266Z,11.90
2019-02-09T17:43:30.922Z,11.77
2019-02-09T17:46:17.446Z,8.40
2019-02-09T17:48:52.400Z,10.53
2019-02-09T17:51:22.856Z,12.57
2019-02-09T17:53:53.113Z,9.10
2019-02-09T17:56:35.271Z,18.60
2019-02-09T17:59:08.912Z,10.50
2019-02-09T18:01:39.084Z,9.17
2019-02-09T18:04:18.890Z,8.80
2019-02-09T18:18:27.451Z,11.20
2019-02-09T18:20:59.475Z,13.00
2019-02-09T18:23:41.368Z,12.43
2019-02-09T18:26:16.083Z,15.70
2019-02-09T18:28:51.640Z,9.23
2019-02-09T18:31:22.503Z,9.57
2019-02-09T18:33:56.822Z,14.70
2019-02-09T18:36:31.463Z,9.80
2019-02-09T18:39:11.177Z,13.10
2019-02-09T18:41:45.630Z,12.93
2019-02-09T18:44:30.891Z,9.13
2019-02-09T18:47:07.456Z,13.13
2019-02-09T18:49:37.792Z,12.73
2019-02-09T18:52:18.180Z,14.47
2019-02-09T18:54:48.439Z,8.50
2019-02-09T18:57:21.391Z,9.37
2019-02-09T18:59:56.470Z,10.23
2019-02-09T19:02:26.462Z,11.60
2019-02-09T19:05:04.429Z,8.50
2019-02-09T19:07:29.599Z,9.17
2019-02-09T19:09:59.653Z,6.67
2019-02-09T19:12:29.704Z,13.87
2019-02-09T19:14:59.695Z,8.80
2019-02-09T19:17:36.134Z,9.77
2019-02-09T19:20:10.145Z,9.80
2019-02-09T19:22:40.705Z,11.23
2019-02-09T19:25:11.175Z,11.90
2019-02-09T19:28:08.680Z,8.53
2019-02-09T19:30:39.216Z,8.90
2019-02-09T19:33:18.782Z,12.93
2019-02-09T19:35:54.288Z,15.90
2019-02-09T19:38:25.159Z,15.00
2019-02-09T19:40:57.661Z,12.03
2019-02-09T19:43:28.223Z,9.17
2019-02-09T19:46:06.887Z,12.00
2019-02-09T19:48:39.528Z,8.40
2019-02-09T19:51:10.079Z,8.67
2019-02-09T19:53:41.266Z,13.90
2019-02-09T19:56:18.186Z,9.00
2019-02-09T19:58:48.835Z,10.20
2019-02-09T20:01:19.024Z,9.93
2019-02-09T20:03:49.795Z,11.80
2019-02-09T20:06:23.933Z,9.37
2019-02-09T20:08:55.757Z,10.73
2019-02-09T20:11:38.345Z,12.83
2019-02-09T20:14:09.360Z,13.67
2019-02-09T20:16:43.794Z,13.07
2019-02-09T20:19:17.008Z,8.40
2019-02-09T20:21:56.023Z,12.70
2019-02-09T20:24:36.060Z,7.83
2019-02-09T20:27:14.445Z,9.80
2019-02-09T20:29:50.122Z,11.40
2019-02-09T20:32:16.423Z,11.37
2019-02-09T20:34:56.985Z,15.97
2019-02-09T20:37:31.446Z,11.83
2019-02-09T20:40:28.823Z,11.03
2019-02-09T20:43:02.166Z,9.73
2019-02-09T20:45:31.757Z,12.23
2019-02-09T20:48:07.312Z,14.00
2019-02-09T20:50:41.692Z,12.67
2019-02-09T20:53:16.471Z,17.90
2019-02-09T20:55:46.902Z,17.10
2019-02-09T20:58:18.577Z,17.73
2019-02-09T21:00:53.498Z,12.80
2019-02-09T21:03:25.079Z,15.33
2019-02-09T21:05:56.633Z,14.67
2019-02-09T21:08:28.391Z,14.17
2019-02-09T21:11:08.911Z,20.73
2019-02-09T21:13:39.152Z,15.00
2019-02-09T21:16:10.387Z,16.20
2019-02-09T21:18:41.939Z,12.50
2019-02-09T21:21:15.334Z,12.87
2019-02-09T21:23:45.529Z,17.53
2019-02-09T21:26:21.218Z,15.60
2019-02-09T21:28:55.462Z,18.83
2019-02-09T21:31:26.290Z,21.27
2019-02-09T21:34:00.333Z,20.17
2019-02-09T21:36:38.895Z,14.13
2019-02-09T21:39:10.986Z,13.20
2019-02-09T21:41:43.328Z,16.03
2019-02-09T21:44:13.920Z,11.33
2019-02-09T21:46:57.575Z,15.90
2019-02-09T21:49:49.313Z,12.50
2019-02-09T21:52:20.388Z,17.47
2019-02-09T21:54:50.780Z,15.00
2019-02-09T21:57:20.952Z,22.43
2019-02-09T21:59:51.230Z,15.37
2019-02-09T22:02:25.400Z,13.97
2019-02-09T22:05:01.834Z,15.03
2019-02-09T22:07:32.400Z,12.70
2019-02-09T22:10:02.607Z,12.67
2019-02-09T22:12:34.399Z,10.83
2019-02-09T22:15:05.624Z,10.30
2019-02-09T22:17:44.045Z,14.47
2019-02-09T22:20:23.201Z,11.50
2019-02-09T22:22:53.930Z,14.77
2019-02-09T22:25:25.152Z,12.27
2019-02-09T22:27:56.064Z,11.77
2019-02-09T22:30:30.735Z,11.37
2019-02-09T22:33:01.468Z,12.30
2019-02-09T22:35:36.458Z,9.10
2019-02-09T22:38:04.565Z,13.17
2019-02-09T22:40:39.602Z,14.23
2019-02-09T22:43:15.737Z,16.33
2019-02-09T22:45:46.085Z,15.23
2019-02-09T22:48:15.771Z,17.23
2019-02-09T22:50:50.266Z,19.13
2019-02-09T22:53:21.085Z,13.00
2019-02-09T22:55:51.062Z,10.30
2019-02-09T22:58:24.638Z,11.33
2019-02-09T23:01:45.206Z,15.17
2019-02-09T23:04:27.263Z,10.30
2019-02-09T23:07:03.743Z,9.57
2019-02-09T23:09:34.142Z,13.40
2019-02-09T23:12:06.397Z,11.07
2019-02-09T23:14:36.946Z,11.70
2019-02-09T23:17:08.238Z,10.53
2019-02-09T23:19:38.494Z,9.17
2019-02-09T23:22:08.875Z,18.13
2019-02-09T23:24:38.934Z,8.43
2019-02-09T23:27:09.688Z,11.33
2019-02-09T23:29:39.775Z,10.03
2019-02-09T23:32:11.115Z,12.50
2019-02-09T23:34:51.350Z,12.93
2019-02-09T23:37:26.424Z,12.33
2019-02-09T23:40:02.681Z,10.43
2019-02-09T23:42:33.487Z,12.70
2019-02-09T23:45:08.421Z,10.90
2019-02-09T23:47:44.680Z,11.40
2019-02-09T23:50:15.505Z,12.10
2019-02-09T23:52:45.817Z,12.00
2019-02-09T23:55:16.015Z,11.47
2019-02-09T23:57:46.857Z,15.87
